METAR Data
IDs: Format: Raw Decoded Include TAF

Data at: 0822 UTC 20 Sep 2018

PAMR 200753Z 00000KT 10SM FEW050 OVC075 12/09 A3012 RMK AO2 SLP199 T01170094
PAMR 200653Z 00000KT 10SM FEW050 OVC075 12/09 A3012 RMK AO2 SLP200 T01220094
PAMR 200553Z 00000KT 10SM OVC075 12/09 A3012 RMK AO2 SLP200 T01220094 10167 20122 58001
PAMR 200453Z 00000KT 10SM OVC075 12/10 A3012 RMK AO2 SLP200 T01220100
PAMR 200353Z 00000KT 10SM OVC075 13/09 A3012 RMK AO2 SLP201 T01280094
PAMR 200253Z 28005KT 10SM OVC075 13/10 A3012 RMK AO2 SLP201 T01330100 56006
PAMR 200153Z 29005KT 10SM OVC070 14/10 A3012 RMK AO2 SLP202 T01440100
PAMR 200053Z 29007KT 10SM OVC070 16/09 A3013 RMK AO2 SLP202 T01560089
PAMR 192353Z 17003KT 10SM FEW070 16/09 A3014 RMK AO2 SLP207 T01610089 10167 20117 58012
PAMR 192253Z 26006KT 10SM BKN070 17/10 A3016 RMK AO2 SLP213 T01670100
PAMR 192153Z 28006KT 10SM BKN070 16/09 A3017 RMK AO2 SLP216 T01560089
PAMR 192053Z 28004KT 10SM SCT015 OVC049 14/08 A3018 RMK AO2 SLP219 T01440083 58005
PAMR 191957Z 00000KT 10SM BKN015 OVC049 13/09 A3018 RMK AO2 T01280089
PAMR 191955Z COR 00000KT 10SM BKN015 OVC049 13/09 A3018 RMK AO2 T01280089
PAMR 191953Z 00000KT 10SM BKN008 BKN049 13/09 A3018 RMK AO2 SLP222 T01280094
PAMR 191853Z VRB03KT 10SM BKN008 BKN046 12/10 A3018 RMK AO2 SLP222 T01220100
PAMR 191842Z 00000KT 10SM BKN009 OVC046 12/10 A3019 RMK AO2 T01220100
PAMR 191835Z COR 18003KT 10SM BKN009 OVC046 12/10 A3019 RMK AO2 T01220100
PAMR 191753Z VRB03KT 10SM BKN007 BKN050 OVC070 12/10 A3019 RMK AO2 SLP224 T01220100 10128 20100 53000
PAMR 191720Z 00000KT 10SM FEW007 OVC070 12/10 A3019 RMK AO2 T01220100
PAMR 191700Z 00000KT 10SM OVC070 11/10 A3018 RMK AO2 T01110100
PAMR 191653Z 00000KT 10SM BKN012 BKN070 11/09 A3018 RMK AO2 SLP221 T01110094
PAMR 191626Z 00000KT 9SM BKN012 BKN070 11/09 A3018 RMK AO2 T01060094
PAMR 191607Z COR 00000KT 9SM BKN008 BKN030 11/09 A3018 RMK AO2 T01060094
PAMR 191553Z 00000KT 10SM BKN008 BKN030 OVC055 11/09 A3019 RMK AO2 SLP223 T01060094
PAMR 191521Z 00000KT 10SM BKN008 BKN030 OVC055 11/09 A3019 RMK AO2 T01060094
PAMR 191453Z 00000KT 10SM SCT008 BKN030 OVC055 11/09 A3019 RMK AO2 SLP223 T01110094 55004
PAMR 191353Z 00000KT 10SM SCT008 BKN035 OVC055 11/09 A3019 RMK AO2 SLP223 T01060094
PAMR 191253Z 00000KT 10SM SCT008 BKN035 OVC055 10/09 A3019 RMK AO2 SLP225 T01000089
PAMR 191153Z 00000KT 10SM FEW008 BKN035 OVC055 11/09 A3020 RMK AO2 SLP227 T01060089 10111 20094 53001
PAMR 191053Z 00000KT 10SM FEW012 SCT034 BKN070 10/08 A3020 RMK AO2 SLP226 T01000083
PAMR 190953Z 13003KT 10SM FEW010 SCT037 OVC070 11/08 A3020 RMK AO2 SLP226 T01060083
PAMR 190853Z 00000KT 10SM SCT037 BKN055 OVC130 11/08 A3020 RMK AO2 SLP226 T01060078 401670094 53003
PAMR 190753Z 13003KT 10SM BKN037 OVC130 10/08 A3019 RMK AO2 SLP225 T01000078
PAMR 190653Z 12003KT 10SM SCT032 BKN130 10/08 A3019 RMK AO2 SLP224 T01000083
PAMR 190553Z 00000KT 10SM CLR 11/08 A3019 RMK AO2 SLP223 T01060083 10156 20106 51003
PAMR 190453Z 15003KT 10SM BKN033 12/09 A3019 RMK AO2 SLP223 T01170094
PAMR 190353Z 25004KT 10SM FEW029 12/09 A3018 RMK AO2 SLP222 T01220089
PAMR 190253Z 27006KT 10SM CLR 14/08 A3018 RMK AO2 SLP220 T01390078 56005
PAMR 190153Z 27004KT 10SM CLR 14/09 A3018 RMK AO2 SLP221 T01390094
PAMR 190053Z 28005KT 10SM SCT045 BKN090 14/09 A3018 RMK AO2 SLP221 T01440089
PAMR 182353Z 27005KT 10SM SCT045 BKN090 15/09 A3019 RMK AO2 SLP225 T01500094 10167 20133 58006
PAMR 182253Z COR 26006KT 10SM BKN070 OVC110 16/10 A3020 RMK AO2 SLP228 T01560100
PAMR 182153Z 27007KT 10SM FEW014 OVC110 15/10 A3021 RMK AO2 SLP230 T01500100
PAMR 182053Z 29005KT 10SM SCT016 OVC030 15/10 A3021 RMK AO2 SLP231 T01500100 51002